sensor_id;sensor_type;location;lat;lon;timestamp;P1;durP1;ratioP1;P2;durP2;ratioP2
42714;SDS011;28351;51.480;5.706;2023-11-19T00:02:18;18.42;;;12.55;;
42714;SDS011;28351;51.480;5.706;2023-11-19T00:04:44;18.30;;;11.13;;
42714;SDS011;28351;51.480;5.706;2023-11-19T00:07:09;20.50;;;11.30;;
42714;SDS011;28351;51.480;5.706;2023-11-19T00:09:37;15.60;;;9.55;;
42714;SDS011;28351;51.480;5.706;2023-11-19T00:12:03;24.05;;;10.82;;
42714;SDS011;28351;51.480;5.706;2023-11-19T00:14:30;16.27;;;9.93;;
42714;SDS011;28351;51.480;5.706;2023-11-19T00:16:55;16.58;;;9.48;;
42714;SDS011;28351;51.480;5.706;2023-11-19T00:19:21;18.88;;;9.25;;
42714;SDS011;28351;51.480;5.706;2023-11-19T00:21:47;13.00;;;8.95;;
42714;SDS011;28351;51.480;5.706;2023-11-19T00:24:13;14.52;;;8.55;;
42714;SDS011;28351;51.480;5.706;2023-11-19T00:26:41;14.73;;;7.78;;
42714;SDS011;28351;51.480;5.706;2023-11-19T00:29:07;13.45;;;7.75;;
42714;SDS011;28351;51.480;5.706;2023-11-19T00:31:32;13.95;;;7.20;;
42714;SDS011;28351;51.480;5.706;2023-11-19T00:33:58;17.40;;;6.78;;
42714;SDS011;28351;51.480;5.706;2023-11-19T00:36:24;11.50;;;6.47;;
42714;SDS011;28351;51.480;5.706;2023-11-19T00:38:50;12.60;;;6.32;;
42714;SDS011;28351;51.480;5.706;2023-11-19T00:41:17;12.40;;;6.35;;
42714;SDS011;28351;51.480;5.706;2023-11-19T00:43:43;11.73;;;5.82;;
42714;SDS011;28351;51.480;5.706;2023-11-19T00:46:09;11.98;;;6.20;;
42714;SDS011;28351;51.480;5.706;2023-11-19T00:48:36;12.23;;;5.40;;
42714;SDS011;28351;51.480;5.706;2023-11-19T00:51:02;9.57;;;4.90;;
42714;SDS011;28351;51.480;5.706;2023-11-19T00:53:29;10.00;;;4.43;;
42714;SDS011;28351;51.480;5.706;2023-11-19T00:55:54;13.75;;;6.05;;
42714;SDS011;28351;51.480;5.706;2023-11-19T00:58:20;9.98;;;4.47;;
42714;SDS011;28351;51.480;5.706;2023-11-19T01:00:46;14.52;;;4.82;;
42714;SDS011;28351;51.480;5.706;2023-11-19T01:03:12;12.55;;;4.70;;
42714;SDS011;28351;51.480;5.706;2023-11-19T01:05:37;7.32;;;4.13;;
42714;SDS011;28351;51.480;5.706;2023-11-19T01:08:04;13.50;;;4.15;;
42714;SDS011;28351;51.480;5.706;2023-11-19T01:10:30;10.80;;;4.22;;
42714;SDS011;28351;51.480;5.706;2023-11-19T01:12:56;12.43;;;4.05;;
42714;SDS011;28351;51.480;5.706;2023-11-19T01:15:22;13.82;;;4.55;;
42714;SDS011;28351;51.480;5.706;2023-11-19T01:17:48;14.93;;;3.95;;
42714;SDS011;28351;51.480;5.706;2023-11-19T01:20:13;12.90;;;4.68;;
42714;SDS011;28351;51.480;5.706;2023-11-19T01:22:39;10.52;;;3.92;;
42714;SDS011;28351;51.480;5.706;2023-11-19T01:25:06;14.82;;;4.60;;
42714;SDS011;28351;51.480;5.706;2023-11-19T01:27:32;19.05;;;4.28;;
42714;SDS011;28351;51.480;5.706;2023-11-19T01:29:59;10.63;;;4.25;;
42714;SDS011;28351;51.480;5.706;2023-11-19T01:32:28;17.77;;;4.38;;
42714;SDS011;28351;51.480;5.706;2023-11-19T01:34:54;17.58;;;4.40;;
42714;SDS011;28351;51.480;5.706;2023-11-19T01:37:20;17.40;;;4.35;;
42714;SDS011;28351;51.480;5.706;2023-11-19T01:39:45;15.32;;;4.55;;
42714;SDS011;28351;51.480;5.706;2023-11-19T01:42:11;21.08;;;4.75;;
42714;SDS011;28351;51.480;5.706;2023-11-19T01:44:37;21.88;;;4.13;;
42714;SDS011;28351;51.480;5.706;2023-11-19T01:47:03;21.02;;;4.45;;
42714;SDS011;28351;51.480;5.706;2023-11-19T01:49:29;22.88;;;4.20;;
42714;SDS011;28351;51.480;5.706;2023-11-19T01:51:57;17.08;;;4.75;;
42714;SDS011;28351;51.480;5.706;2023-11-19T01:54:23;19.15;;;4.03;;
42714;SDS011;28351;51.480;5.706;2023-11-19T01:56:49;25.33;;;4.85;;
42714;SDS011;28351;51.480;5.706;2023-11-19T01:59:14;20.75;;;4.30;;
42714;SDS011;28351;51.480;5.706;2023-11-19T02:01:42;18.35;;;4.32;;
42714;SDS011;28351;51.480;5.706;2023-11-19T02:04:14;19.85;;;4.00;;
42714;SDS011;28351;51.480;5.706;2023-11-19T02:06:41;15.40;;;3.70;;
42714;SDS011;28351;51.480;5.706;2023-11-19T02:09:16;16.75;;;4.20;;
42714;SDS011;28351;51.480;5.706;2023-11-19T02:14:32;19.40;;;4.18;;
42714;SDS011;28351;51.480;5.706;2023-11-19T02:17:07;16.70;;;3.85;;
42714;SDS011;28351;51.480;5.706;2023-11-19T02:19:53;19.10;;;4.22;;
42714;SDS011;28351;51.480;5.706;2023-11-19T02:22:19;20.38;;;4.82;;
42714;SDS011;28351;51.480;5.706;2023-11-19T02:24:45;16.67;;;4.50;;
42714;SDS011;28351;51.480;5.706;2023-11-19T02:27:16;17.25;;;4.07;;
42714;SDS011;28351;51.480;5.706;2023-11-19T02:30:03;21.17;;;4.18;;
42714;SDS011;28351;51.480;5.706;2023-11-19T02:32:33;18.05;;;4.18;;
42714;SDS011;28351;51.480;5.706;2023-11-19T02:35:01;17.30;;;4.60;;
42714;SDS011;28351;51.480;5.706;2023-11-19T02:37:26;14.05;;;4.10;;
42714;SDS011;28351;51.480;5.706;2023-11-19T02:39:53;18.42;;;4.00;;
42714;SDS011;28351;51.480;5.706;2023-11-19T02:42:19;15.80;;;4.60;;
42714;SDS011;28351;51.480;5.706;2023-11-19T02:44:44;19.60;;;4.32;;
42714;SDS011;28351;51.480;5.706;2023-11-19T02:47:11;27.13;;;5.43;;
42714;SDS011;28351;51.480;5.706;2023-11-19T02:49:37;21.60;;;5.22;;
42714;SDS011;28351;51.480;5.706;2023-11-19T02:52:12;23.73;;;5.15;;
42714;SDS011;28351;51.480;5.706;2023-11-19T02:54:40;31.10;;;5.00;;
42714;SDS011;28351;51.480;5.706;2023-11-19T02:57:07;31.13;;;5.50;;
42714;SDS011;28351;51.480;5.706;2023-11-19T02:59:38;30.90;;;5.38;;
42714;SDS011;28351;51.480;5.706;2023-11-19T03:02:15;36.28;;;5.43;;
42714;SDS011;28351;51.480;5.706;2023-11-19T03:04:42;42.72;;;5.78;;
42714;SDS011;28351;51.480;5.706;2023-11-19T03:07:09;35.95;;;5.35;;
42714;SDS011;28351;51.480;5.706;2023-11-19T03:09:34;28.35;;;5.00;;
42714;SDS011;28351;51.480;5.706;2023-11-19T03:12:00;27.05;;;4.45;;
42714;SDS011;28351;51.480;5.706;2023-11-19T03:14:26;37.75;;;5.72;;
42714;SDS011;28351;51.480;5.706;2023-11-19T03:16:52;33.20;;;5.65;;
42714;SDS011;28351;51.480;5.706;2023-11-19T03:19:18;41.53;;;6.25;;
42714;SDS011;28351;51.480;5.706;2023-11-19T03:21:43;40.97;;;5.68;;
42714;SDS011;28351;51.480;5.706;2023-11-19T03:24:09;37.13;;;5.63;;
42714;SDS011;28351;51.480;5.706;2023-11-19T03:26:37;25.30;;;4.25;;
42714;SDS011;28351;51.480;5.706;2023-11-19T03:29:03;35.22;;;4.97;;
42714;SDS011;28351;51.480;5.706;2023-11-19T03:31:29;31.90;;;4.45;;
42714;SDS011;28351;51.480;5.706;2023-11-19T03:33:54;33.58;;;5.00;;
42714;SDS011;28351;51.480;5.706;2023-11-19T03:36:20;34.15;;;4.93;;
42714;SDS011;28351;51.480;5.706;2023-11-19T03:38:45;31.05;;;4.80;;
42714;SDS011;28351;51.480;5.706;2023-11-19T03:41:12;38.28;;;6.15;;
42714;SDS011;28351;51.480;5.706;2023-11-19T03:43:38;41.35;;;5.32;;
42714;SDS011;28351;51.480;5.706;2023-11-19T03:46:04;44.65;;;5.82;;
42714;SDS011;28351;51.480;5.706;2023-11-19T03:48:40;50.80;;;5.20;;
42714;SDS011;28351;51.480;5.706;2023-11-19T03:51:44;35.08;;;4.95;;
42714;SDS011;28351;51.480;5.706;2023-11-19T03:54:10;39.63;;;5.45;;
42714;SDS011;28351;51.480;5.706;2023-11-19T03:56:36;41.40;;;6.15;;
42714;SDS011;28351;51.480;5.706;2023-11-19T03:59:02;36.63;;;5.10;;
42714;SDS011;28351;51.480;5.706;2023-11-19T04:01:28;37.63;;;6.07;;
42714;SDS011;28351;51.480;5.706;2023-11-19T04:03:54;49.75;;;5.65;;
42714;SDS011;28351;51.480;5.706;2023-11-19T04:06:21;48.00;;;6.68;;
42714;SDS011;28351;51.480;5.706;2023-11-19T04:08:47;36.42;;;5.40;;
42714;SDS011;28351;51.480;5.706;2023-11-19T04:11:14;51.58;;;7.10;;
42714;SDS011;28351;51.480;5.706;2023-11-19T04:13:40;35.80;;;6.03;;
42714;SDS011;28351;51.480;5.706;2023-11-19T04:16:05;38.20;;;5.13;;
42714;SDS011;28351;51.480;5.706;2023-11-19T04:18:32;41.38;;;5.60;;
42714;SDS011;28351;51.480;5.706;2023-11-19T04:20:57;46.63;;;6.20;;
42714;SDS011;28351;51.480;5.706;2023-11-19T04:23:23;44.88;;;6.57;;
42714;SDS011;28351;51.480;5.706;2023-11-19T04:25:58;41.75;;;6.25;;
42714;SDS011;28351;51.480;5.706;2023-11-19T04:29:24;43.05;;;5.95;;
42714;SDS011;28351;51.480;5.706;2023-11-19T04:31:50;40.55;;;5.75;;
42714;SDS011;28351;51.480;5.706;2023-11-19T04:34:16;37.78;;;5.68;;
42714;SDS011;28351;51.480;5.706;2023-11-19T04:36:41;44.72;;;5.50;;
42714;SDS011;28351;51.480;5.706;2023-11-19T04:39:08;55.75;;;6.10;;
42714;SDS011;28351;51.480;5.706;2023-11-19T04:41:47;40.35;;;6.65;;
42714;SDS011;28351;51.480;5.706;2023-11-19T04:47:16;39.75;;;6.10;;
42714;SDS011;28351;51.480;5.706;2023-11-19T04:50:05;43.13;;;6.45;;
42714;SDS011;28351;51.480;5.706;2023-11-19T04:58:46;40.20;;;7.03;;
42714;SDS011;28351;51.480;5.706;2023-11-19T05:07:21;40.88;;;6.85;;
42714;SDS011;28351;51.480;5.706;2023-11-19T05:09:46;42.85;;;6.15;;
42714;SDS011;28351;51.480;5.706;2023-11-19T05:12:12;45.05;;;5.60;;
42714;SDS011;28351;51.480;5.706;2023-11-19T05:17:24;45.65;;;6.72;;
42714;SDS011;28351;51.480;5.706;2023-11-19T05:19:50;36.25;;;5.78;;
42714;SDS011;28351;51.480;5.706;2023-11-19T05:22:38;41.42;;;5.43;;
42714;SDS011;28351;51.480;5.706;2023-11-19T05:27:53;42.08;;;4.88;;
42714;SDS011;28351;51.480;5.706;2023-11-19T05:36:00;41.13;;;5.30;;
42714;SDS011;28351;51.480;5.706;2023-11-19T05:44:44;41.38;;;6.65;;
42714;SDS011;28351;51.480;5.706;2023-11-19T05:52:49;45.47;;;6.22;;
42714;SDS011;28351;51.480;5.706;2023-11-19T05:55:15;43.88;;;6.00;;
42714;SDS011;28351;51.480;5.706;2023-11-19T05:57:56;40.70;;;6.57;;
42714;SDS011;28351;51.480;5.706;2023-11-19T06:03:40;31.17;;;5.40;;
42714;SDS011;28351;51.480;5.706;2023-11-19T06:23:34;46.65;;;6.25;;
42714;SDS011;28351;51.480;5.706;2023-11-19T06:26:02;40.40;;;6.13;;
42714;SDS011;28351;51.480;5.706;2023-11-19T06:31:55;43.67;;;5.90;;
42714;SDS011;28351;51.480;5.706;2023-11-19T06:50:32;51.20;;;6.30;;
42714;SDS011;28351;51.480;5.706;2023-11-19T06:58:11;49.92;;;5.82;;
42714;SDS011;28351;51.480;5.706;2023-11-19T07:04:04;43.88;;;5.63;;
42714;SDS011;28351;51.480;5.706;2023-11-19T07:34:00;48.45;;;5.55;;
42714;SDS011;28351;51.480;5.706;2023-11-19T07:36:32;57.58;;;6.18;;
42714;SDS011;28351;51.480;5.706;2023-11-19T07:38:58;47.00;;;6.82;;
42714;SDS011;28351;51.480;5.706;2023-11-19T07:56:32;47.22;;;7.10;;
42714;SDS011;28351;51.480;5.706;2023-11-19T07:59:20;51.95;;;7.28;;
42714;SDS011;28351;51.480;5.706;2023-11-19T08:01:54;44.25;;;5.82;;
42714;SDS011;28351;51.480;5.706;2023-11-19T08:04:57;43.90;;;5.90;;
42714;SDS011;28351;51.480;5.706;2023-11-19T08:07:23;48.00;;;5.68;;
42714;SDS011;28351;51.480;5.706;2023-11-19T08:09:49;61.55;;;6.95;;
42714;SDS011;28351;51.480;5.706;2023-11-19T08:15:20;54.22;;;6.55;;
42714;SDS011;28351;51.480;5.706;2023-11-19T08:17:45;50.83;;;6.05;;
42714;SDS011;28351;51.480;5.706;2023-11-19T08:26:01;50.10;;;6.03;;
42714;SDS011;28351;51.480;5.706;2023-11-19T08:28:30;41.00;;;5.57;;
42714;SDS011;28351;51.480;5.706;2023-11-19T08:31:05;43.50;;;5.93;;
42714;SDS011;28351;51.480;5.706;2023-11-19T08:33:31;61.30;;;7.45;;
42714;SDS011;28351;51.480;5.706;2023-11-19T08:35:57;40.97;;;5.47;;
42714;SDS011;28351;51.480;5.706;2023-11-19T08:48:14;50.90;;;5.82;;
42714;SDS011;28351;51.480;5.706;2023-11-19T08:50:54;46.80;;;6.28;;
42714;SDS011;28351;51.480;5.706;2023-11-19T08:56:06;43.25;;;5.57;;
42714;SDS011;28351;51.480;5.706;2023-11-19T08:58:31;39.70;;;6.18;;
42714;SDS011;28351;51.480;5.706;2023-11-19T09:07:06;44.97;;;5.93;;
42714;SDS011;28351;51.480;5.706;2023-11-19T09:09:43;45.53;;;6.07;;
42714;SDS011;28351;51.480;5.706;2023-11-19T09:15:37;41.83;;;5.30;;
42714;SDS011;28351;51.480;5.706;2023-11-19T09:18:02;43.38;;;5.85;;
42714;SDS011;28351;51.480;5.706;2023-11-19T09:20:29;41.97;;;5.88;;
42714;SDS011;28351;51.480;5.706;2023-11-19T09:23:02;44.83;;;5.82;;
42714;SDS011;28351;51.480;5.706;2023-11-19T09:25:30;40.35;;;5.90;;
42714;SDS011;28351;51.480;5.706;2023-11-19T09:27:56;49.53;;;6.50;;
42714;SDS011;28351;51.480;5.706;2023-11-19T09:33:05;40.53;;;6.18;;
42714;SDS011;28351;51.480;5.706;2023-11-19T09:35:32;47.90;;;5.28;;
42714;SDS011;28351;51.480;5.706;2023-11-19T09:43:44;44.20;;;5.90;;
42714;SDS011;28351;51.480;5.706;2023-11-19T09:46:10;53.78;;;6.07;;
42714;SDS011;28351;51.480;5.706;2023-11-19T09:49:13;45.30;;;6.57;;
42714;SDS011;28351;51.480;5.706;2023-11-19T09:51:40;44.45;;;6.55;;
42714;SDS011;28351;51.480;5.706;2023-11-19T09:54:06;37.60;;;5.65;;
42714;SDS011;28351;51.480;5.706;2023-11-19T09:56:32;56.15;;;6.80;;
42714;SDS011;28351;51.480;5.706;2023-11-19T09:59:00;38.00;;;5.28;;
42714;SDS011;28351;51.480;5.706;2023-11-19T10:01:25;38.45;;;5.80;;
42714;SDS011;28351;51.480;5.706;2023-11-19T10:03:51;34.55;;;5.15;;
42714;SDS011;28351;51.480;5.706;2023-11-19T10:06:20;38.22;;;5.15;;
42714;SDS011;28351;51.480;5.706;2023-11-19T10:08:48;29.92;;;5.28;;
42714;SDS011;28351;51.480;5.706;2023-11-19T10:11:21;39.80;;;6.03;;
42714;SDS011;28351;51.480;5.706;2023-11-19T10:13:47;39.25;;;5.90;;
42714;SDS011;28351;51.480;5.706;2023-11-19T10:16:13;37.55;;;6.20;;
42714;SDS011;28351;51.480;5.706;2023-11-19T10:18:44;37.28;;;5.75;;
42714;SDS011;28351;51.480;5.706;2023-11-19T10:21:17;34.88;;;5.03;;
42714;SDS011;28351;51.480;5.706;2023-11-19T10:23:49;40.92;;;5.93;;
42714;SDS011;28351;51.480;5.706;2023-11-19T10:26:17;33.33;;;5.10;;
42714;SDS011;28351;51.480;5.706;2023-11-19T10:28:43;35.10;;;5.57;;
42714;SDS011;28351;51.480;5.706;2023-11-19T10:31:11;41.15;;;4.82;;
42714;SDS011;28351;51.480;5.706;2023-11-19T10:33:41;39.33;;;6.20;;
42714;SDS011;28351;51.480;5.706;2023-11-19T10:36:09;38.47;;;5.65;;
42714;SDS011;28351;51.480;5.706;2023-11-19T10:38:37;27.20;;;4.53;;
42714;SDS011;28351;51.480;5.706;2023-11-19T10:41:03;33.15;;;4.68;;
42714;SDS011;28351;51.480;5.706;2023-11-19T10:43:30;33.15;;;4.43;;
42714;SDS011;28351;51.480;5.706;2023-11-19T10:46:09;41.00;;;5.18;;
42714;SDS011;28351;51.480;5.706;2023-11-19T10:48:35;29.83;;;4.80;;
42714;SDS011;28351;51.480;5.706;2023-11-19T10:51:01;42.50;;;5.88;;
42714;SDS011;28351;51.480;5.706;2023-11-19T10:53:33;29.00;;;5.35;;
42714;SDS011;28351;51.480;5.706;2023-11-19T10:56:01;27.98;;;4.03;;
42714;SDS011;28351;51.480;5.706;2023-11-19T10:58:29;29.23;;;4.50;;
42714;SDS011;28351;51.480;5.706;2023-11-19T11:03:29;27.38;;;4.50;;
42714;SDS011;28351;51.480;5.706;2023-11-19T11:06:02;34.50;;;4.40;;
42714;SDS011;28351;51.480;5.706;2023-11-19T11:08:29;33.05;;;5.28;;
42714;SDS011;28351;51.480;5.706;2023-11-19T11:10:56;27.17;;;4.55;;
42714;SDS011;28351;51.480;5.706;2023-11-19T11:13:26;32.17;;;4.72;;
42714;SDS011;28351;51.480;5.706;2023-11-19T11:15:56;33.78;;;4.85;;
42714;SDS011;28351;51.480;5.706;2023-11-19T11:18:25;29.48;;;5.30;;
42714;SDS011;28351;51.480;5.706;2023-11-19T11:21:02;30.60;;;4.53;;
42714;SDS011;28351;51.480;5.706;2023-11-19T11:29:04;32.65;;;5.63;;
42714;SDS011;28351;51.480;5.706;2023-11-19T11:34:35;36.92;;;5.07;;
42714;SDS011;28351;51.480;5.706;2023-11-19T11:39:49;30.52;;;4.55;;
42714;SDS011;28351;51.480;5.706;2023-11-19T11:47:50;30.15;;;4.45;;
42714;SDS011;28351;51.480;5.706;2023-11-19T11:50:29;26.05;;;3.97;;
42714;SDS011;28351;51.480;5.706;2023-11-19T11:55:36;33.67;;;4.72;;
42714;SDS011;28351;51.480;5.706;2023-11-19T11:58:28;36.60;;;4.65;;
42714;SDS011;28351;51.480;5.706;2023-11-19T12:00:57;30.77;;;4.28;;
42714;SDS011;28351;51.480;5.706;2023-11-19T12:03:27;23.65;;;3.58;;
42714;SDS011;28351;51.480;5.706;2023-11-19T12:05:54;29.05;;;3.83;;
42714;SDS011;28351;51.480;5.706;2023-11-19T12:08:20;19.48;;;3.85;;
42714;SDS011;28351;51.480;5.706;2023-11-19T12:10:51;24.95;;;4.05;;
42714;SDS011;28351;51.480;5.706;2023-11-19T12:13:19;28.60;;;4.28;;
42714;SDS011;28351;51.480;5.706;2023-11-19T12:18:30;25.80;;;4.18;;
42714;SDS011;28351;51.480;5.706;2023-11-19T12:20:57;31.25;;;4.43;;
42714;SDS011;28351;51.480;5.706;2023-11-19T12:23:30;21.27;;;3.55;;
42714;SDS011;28351;51.480;5.706;2023-11-19T12:25:56;23.85;;;4.38;;
42714;SDS011;28351;51.480;5.706;2023-11-19T12:28:22;24.45;;;4.50;;
42714;SDS011;28351;51.480;5.706;2023-11-19T12:30:49;21.05;;;4.13;;
42714;SDS011;28351;51.480;5.706;2023-11-19T12:33:16;26.63;;;3.85;;
42714;SDS011;28351;51.480;5.706;2023-11-19T12:35:42;28.38;;;4.25;;
42714;SDS011;28351;51.480;5.706;2023-11-19T12:38:22;20.85;;;4.28;;
42714;SDS011;28351;51.480;5.706;2023-11-19T12:41:04;29.33;;;4.35;;
42714;SDS011;28351;51.480;5.706;2023-11-19T12:43:30;26.35;;;4.32;;
42714;SDS011;28351;51.480;5.706;2023-11-19T12:45:56;22.77;;;4.32;;
42714;SDS011;28351;51.480;5.706;2023-11-19T12:48:22;28.65;;;4.43;;
42714;SDS011;28351;51.480;5.706;2023-11-19T12:50:51;28.05;;;4.10;;
42714;SDS011;28351;51.480;5.706;2023-11-19T12:53:22;22.67;;;4.65;;
42714;SDS011;28351;51.480;5.706;2023-11-19T12:55:48;31.08;;;4.95;;
42714;SDS011;28351;51.480;5.706;2023-11-19T13:01:06;30.10;;;4.95;;
42714;SDS011;28351;51.480;5.706;2023-11-19T13:03:33;23.55;;;4.15;;
42714;SDS011;28351;51.480;5.706;2023-11-19T13:06:06;27.10;;;4.00;;
42714;SDS011;28351;51.480;5.706;2023-11-19T13:08:38;35.38;;;4.30;;
42714;SDS011;28351;51.480;5.706;2023-11-19T13:11:08;32.97;;;4.82;;
42714;SDS011;28351;51.480;5.706;2023-11-19T13:16:35;29.80;;;4.13;;
42714;SDS011;28351;51.480;5.706;2023-11-19T13:19:08;28.50;;;4.13;;
42714;SDS011;28351;51.480;5.706;2023-11-19T13:21:34;27.30;;;3.97;;
42714;SDS011;28351;51.480;5.706;2023-11-19T13:24:02;21.35;;;4.25;;
42714;SDS011;28351;51.480;5.706;2023-11-19T13:29:53;48.28;;;5.38;;
42714;SDS011;28351;51.480;5.706;2023-11-19T13:32:19;31.00;;;4.82;;
42714;SDS011;28351;51.480;5.706;2023-11-19T13:34:44;35.60;;;5.13;;
42714;SDS011;28351;51.480;5.706;2023-11-19T13:37:11;26.92;;;4.78;;
42714;SDS011;28351;51.480;5.706;2023-11-19T13:39:41;29.23;;;4.55;;
42714;SDS011;28351;51.480;5.706;2023-11-19T13:42:07;31.70;;;4.93;;
42714;SDS011;28351;51.480;5.706;2023-11-19T13:44:32;28.10;;;4.35;;
42714;SDS011;28351;51.480;5.706;2023-11-19T13:46:58;25.58;;;4.07;;
42714;SDS011;28351;51.480;5.706;2023-11-19T13:49:24;26.98;;;4.50;;
42714;SDS011;28351;51.480;5.706;2023-11-19T13:51:49;27.92;;;3.97;;
42714;SDS011;28351;51.480;5.706;2023-11-19T13:54:15;27.55;;;4.43;;
42714;SDS011;28351;51.480;5.706;2023-11-19T13:56:41;26.88;;;4.00;;
42714;SDS011;28351;51.480;5.706;2023-11-19T13:59:06;27.05;;;4.95;;
42714;SDS011;28351;51.480;5.706;2023-11-19T14:01:33;28.30;;;4.40;;
42714;SDS011;28351;51.480;5.706;2023-11-19T14:03:59;28.13;;;4.45;;
42714;SDS011;28351;51.480;5.706;2023-11-19T14:06:24;22.48;;;4.15;;
42714;SDS011;28351;51.480;5.706;2023-11-19T14:08:50;27.75;;;4.68;;
42714;SDS011;28351;51.480;5.706;2023-11-19T14:11:16;26.05;;;3.97;;
42714;SDS011;28351;51.480;5.706;2023-11-19T14:13:41;24.75;;;4.75;;
42714;SDS011;28351;51.480;5.706;2023-11-19T14:16:07;33.72;;;4.60;;
42714;SDS011;28351;51.480;5.706;2023-11-19T14:18:50;25.67;;;4.43;;
42714;SDS011;28351;51.480;5.706;2023-11-19T14:21:15;25.40;;;4.93;;
42714;SDS011;28351;51.480;5.706;2023-11-19T14:23:41;29.08;;;4.72;;
42714;SDS011;28351;51.480;5.706;2023-11-19T14:26:06;34.17;;;4.15;;
42714;SDS011;28351;51.480;5.706;2023-11-19T14:28:32;28.60;;;4.07;;
42714;SDS011;28351;51.480;5.706;2023-11-19T14:31:04;28.10;;;4.55;;
42714;SDS011;28351;51.480;5.706;2023-11-19T14:33:30;28.35;;;4.50;;
42714;SDS011;28351;51.480;5.706;2023-11-19T14:35:57;23.20;;;4.40;;
42714;SDS011;28351;51.480;5.706;2023-11-19T14:38:24;30.00;;;3.78;;
42714;SDS011;28351;51.480;5.706;2023-11-19T14:40:51;20.65;;;3.80;;
42714;SDS011;28351;51.480;5.706;2023-11-19T14:43:17;25.40;;;4.43;;
42714;SDS011;28351;51.480;5.706;2023-11-19T14:45:44;31.20;;;5.97;;
42714;SDS011;28351;51.480;5.706;2023-11-19T14:48:10;25.08;;;5.00;;
42714;SDS011;28351;51.480;5.706;2023-11-19T14:50:35;30.15;;;4.43;;
42714;SDS011;28351;51.480;5.706;2023-11-19T14:53:21;31.55;;;4.45;;
42714;SDS011;28351;51.480;5.706;2023-11-19T14:55:47;28.83;;;4.07;;
42714;SDS011;28351;51.480;5.706;2023-11-19T14:58:13;24.30;;;4.63;;
42714;SDS011;28351;51.480;5.706;2023-11-19T15:00:39;29.02;;;5.03;;
42714;SDS011;28351;51.480;5.706;2023-11-19T15:03:05;24.40;;;4.53;;
42714;SDS011;28351;51.480;5.706;2023-11-19T15:05:31;32.50;;;5.13;;
42714;SDS011;28351;51.480;5.706;2023-11-19T15:07:57;28.70;;;4.45;;
42714;SDS011;28351;51.480;5.706;2023-11-19T15:10:22;34.25;;;5.43;;
42714;SDS011;28351;51.480;5.706;2023-11-19T15:12:49;30.33;;;4.97;;
42714;SDS011;28351;51.480;5.706;2023-11-19T15:15:15;28.67;;;4.75;;
42714;SDS011;28351;51.480;5.706;2023-11-19T15:23:32;28.65;;;4.28;;
42714;SDS011;28351;51.480;5.706;2023-11-19T15:28:36;33.03;;;4.55;;
42714;SDS011;28351;51.480;5.706;2023-11-19T15:31:02;27.73;;;6.13;;
42714;SDS011;28351;51.480;5.706;2023-11-19T15:33:28;35.17;;;5.03;;
42714;SDS011;28351;51.480;5.706;2023-11-19T15:35:53;35.00;;;5.25;;
42714;SDS011;28351;51.480;5.706;2023-11-19T15:38:22;38.42;;;6.38;;
42714;SDS011;28351;51.480;5.706;2023-11-19T15:40:47;36.95;;;5.35;;
42714;SDS011;28351;51.480;5.706;2023-11-19T15:43:13;38.72;;;5.95;;
42714;SDS011;28351;51.480;5.706;2023-11-19T15:45:39;48.08;;;8.00;;
42714;SDS011;28351;51.480;5.706;2023-11-19T15:48:05;38.78;;;6.25;;
42714;SDS011;28351;51.480;5.706;2023-11-19T15:50:31;48.53;;;8.52;;
42714;SDS011;28351;51.480;5.706;2023-11-19T15:52:57;42.30;;;6.57;;
42714;SDS011;28351;51.480;5.706;2023-11-19T15:55:24;41.28;;;6.70;;
42714;SDS011;28351;51.480;5.706;2023-11-19T15:57:49;34.03;;;6.25;;
42714;SDS011;28351;51.480;5.706;2023-11-19T16:02:52;35.15;;;6.10;;
42714;SDS011;28351;51.480;5.706;2023-11-19T16:05:20;34.25;;;6.07;;
42714;SDS011;28351;51.480;5.706;2023-11-19T16:07:46;36.00;;;5.55;;
42714;SDS011;28351;51.480;5.706;2023-11-19T16:13:00;39.40;;;6.35;;
42714;SDS011;28351;51.480;5.706;2023-11-19T16:15:25;30.52;;;4.85;;
42714;SDS011;28351;51.480;5.706;2023-11-19T16:17:51;42.10;;;5.82;;
42714;SDS011;28351;51.480;5.706;2023-11-19T16:20:19;28.20;;;4.78;;
42714;SDS011;28351;51.480;5.706;2023-11-19T16:22:47;35.72;;;6.50;;
42714;SDS011;28351;51.480;5.706;2023-11-19T16:33:05;32.53;;;4.47;;
42714;SDS011;28351;51.480;5.706;2023-11-19T16:35:41;28.85;;;5.13;;
42714;SDS011;28351;51.480;5.706;2023-11-19T16:40:47;35.90;;;5.22;;
42714;SDS011;28351;51.480;5.706;2023-11-19T16:46:50;37.30;;;5.95;;
42714;SDS011;28351;51.480;5.706;2023-11-19T16:52:15;35.13;;;6.43;;
42714;SDS011;28351;51.480;5.706;2023-11-19T16:54:49;36.97;;;5.95;;
42714;SDS011;28351;51.480;5.706;2023-11-19T16:57:24;36.72;;;5.07;;
42714;SDS011;28351;51.480;5.706;2023-11-19T17:03:19;31.42;;;5.60;;
42714;SDS011;28351;51.480;5.706;2023-11-19T17:05:45;33.40;;;5.40;;
42714;SDS011;28351;51.480;5.706;2023-11-19T17:40:21;35.47;;;6.57;;
42714;SDS011;28351;51.480;5.706;2023-11-19T17:42:48;40.63;;;6.85;;
42714;SDS011;28351;51.480;5.706;2023-11-19T17:50:41;30.77;;;5.60;;
42714;SDS011;28351;51.480;5.706;2023-11-19T17:56:14;32.42;;;5.22;;
42714;SDS011;28351;51.480;5.706;2023-11-19T18:13:10;32.08;;;4.60;;
42714;SDS011;28351;51.480;5.706;2023-11-19T18:19:01;28.30;;;4.30;;
42714;SDS011;28351;51.480;5.706;2023-11-19T19:12:09;18.42;;;3.72;;
42714;SDS011;28351;51.480;5.706;2023-11-19T20:21:52;23.17;;;4.00;;
42714;SDS011;28351;51.480;5.706;2023-11-19T20:33:12;24.40;;;3.90;;
42714;SDS011;28351;51.480;5.706;2023-11-19T20:35:37;25.00;;;4.15;;
42714;SDS011;28351;51.480;5.706;2023-11-19T20:38:04;20.30;;;4.05;;
42714;SDS011;28351;51.480;5.706;2023-11-19T20:46:05;19.77;;;3.92;;
42714;SDS011;28351;51.480;5.706;2023-11-19T20:51:44;21.15;;;4.05;;
42714;SDS011;28351;51.480;5.706;2023-11-19T20:54:10;21.20;;;3.85;;
42714;SDS011;28351;51.480;5.706;2023-11-19T20:56:35;28.45;;;4.28;;
42714;SDS011;28351;51.480;5.706;2023-11-19T21:04:12;12.73;;;3.55;;
42714;SDS011;28351;51.480;5.706;2023-11-19T21:06:37;21.30;;;3.15;;
42714;SDS011;28351;51.480;5.706;2023-11-19T21:09:05;23.60;;;4.70;;
42714;SDS011;28351;51.480;5.706;2023-11-19T21:11:40;21.38;;;4.05;;
42714;SDS011;28351;51.480;5.706;2023-11-19T21:14:09;15.70;;;4.30;;
42714;SDS011;28351;51.480;5.706;2023-11-19T21:16:35;22.45;;;4.30;;
42714;SDS011;28351;51.480;5.706;2023-11-19T21:22:10;20.80;;;3.60;;
42714;SDS011;28351;51.480;5.706;2023-11-19T21:27:28;15.88;;;4.70;;
42714;SDS011;28351;51.480;5.706;2023-11-19T21:32:32;14.60;;;3.10;;
42714;SDS011;28351;51.480;5.706;2023-11-19T21:40:14;17.48;;;2.85;;
42714;SDS011;28351;51.480;5.706;2023-11-19T21:46:00;18.67;;;3.13;;
42714;SDS011;28351;51.480;5.706;2023-11-19T22:24:19;19.38;;;3.90;;
